Time;durP1;ratioP1;P1;durP2;ratioP2;P2;SDS_P1;SDS_P2;PMS_P1;PMS_P2;Temp;Humidity;BMP_temperature;BMP_pressure;BME280_temperature;BME280_humidity;BME280_pressure;Samples;Min_cycle;Max_cycle;Signal;HPM_P1;HPM_P2
2021/01/24 00:00:45;;;;;;;;;;;16.30;54.90;;;;;;5071263;28;19964;-57
2021/01/24 00:03:12;;;;;;;;;;;16.30;54.80;;;;;;5070148;28;20373;-57
2021/01/24 00:05:38;;;;;;;;;;;16.30;54.80;;;;;;5067245;28;20185;-57
2021/01/24 00:08:04;;;;;;;;;;;16.30;54.90;;;;;;5069828;28;19933;-57
2021/01/24 00:10:30;;;;;;;;;;;16.30;54.80;;;;;;5062186;28;19932;-57
2021/01/24 00:12:57;;;;;;;;;;;16.30;54.70;;;;;;5068188;28;19932;-57
2021/01/24 00:15:23;;;;;;;;;;;16.30;54.70;;;;;;5064915;28;19924;-57
2021/01/24 00:17:49;;;;;;;;;;;16.30;54.70;;;;;;5069012;28;20369;-57
2021/01/24 00:20:15;;;;;;;;;;;16.30;54.70;;;;;;5066249;28;19978;-57
2021/01/24 00:22:42;;;;;;;;;;;16.20;54.70;;;;;;5065901;28;19935;-57
2021/01/24 00:25:08;;;;;;;;;;;16.20;54.60;;;;;;5062323;28;19925;-57
2021/01/24 00:27:35;;;;;;;;;;;16.20;54.50;;;;;;5067836;28;19928;-57
2021/01/24 00:30:02;;;;;;;;;;;16.20;54.60;;;;;;5066665;28;19924;-57
2021/01/24 00:32:29;;;;;;;;;;;16.20;54.60;;;;;;5067311;28;19940;-57
2021/01/24 00:34:55;;;;;;;;;;;16.20;54.50;;;;;;5065291;28;19939;-57
2021/01/24 00:37:21;;;;;;;;;;;16.20;54.40;;;;;;5068654;28;19924;-57
2021/01/24 00:39:48;;;;;;;;;;;16.20;54.50;;;;;;5069959;28;19932;-57
2021/01/24 00:42:14;;;;;;;;;;;16.20;54.40;;;;;;5061545;28;19932;-57
2021/01/24 00:44:40;;;;;;;;;;;16.20;54.40;;;;;;5070357;28;20377;-57
2021/01/24 00:47:06;;;;;;;;;;;16.20;54.40;;;;;;5063383;28;20389;-57
2021/01/24 00:49:33;;;;;;;;;;;16.20;54.30;;;;;;5067993;28;19925;-57
2021/01/24 00:51:59;;;;;;;;;;;16.20;54.20;;;;;;5060754;28;19924;-57
2021/01/24 00:54:25;;;;;;;;;;;16.20;54.20;;;;;;5070057;28;19932;-57
2021/01/24 00:56:52;;;;;;;;;;;16.20;54.20;;;;;;5061731;28;19930;-57
2021/01/24 00:59:18;;;;;;;;;;;16.10;54.00;;;;;;5073196;28;19924;-58
2021/01/24 01:01:44;;;;;;;;;;;16.20;53.90;;;;;;5060056;28;19925;-58
2021/01/24 01:04:10;;;;;;;;;;;16.20;54.00;;;;;;5074776;28;20335;-58
2021/01/24 01:06:36;;;;;;;;;;;16.20;54.10;;;;;;5063356;28;19986;-58
2021/01/24 01:09:03;;;;;;;;;;;16.10;54.00;;;;;;5066946;28;19928;-58
2021/01/24 01:11:29;;;;;;;;;;;16.20;54.10;;;;;;5060222;28;19932;-56
2021/01/24 01:13:55;;;;;;;;;;;16.10;54.00;;;;;;5068914;28;19931;-56
2021/01/24 01:16:21;;;;;;;;;;;16.10;54.00;;;;;;5064883;28;19925;-56
2021/01/24 01:18:48;;;;;;;;;;;16.10;54.00;;;;;;5066668;28;19986;-58
2021/01/24 01:21:14;;;;;;;;;;;16.10;54.00;;;;;;5085517;28;19955;-57
2021/01/24 01:23:40;;;;;;;;;;;16.10;53.90;;;;;;5058860;28;19933;-57
2021/01/24 01:26:12;;;;;;;;;;;16.10;53.90;;;;;;5067862;28;19935;-58
2021/01/24 01:28:39;;;;;;;;;;;16.10;53.90;;;;;;5059709;28;19944;-57
2021/01/24 01:31:05;;;;;;;;;;;16.10;53.90;;;;;;5064078;28;19925;-58
2021/01/24 01:33:31;;;;;;;;;;;16.10;53.80;;;;;;5062757;28;20383;-58
2021/01/24 01:35:57;;;;;;;;;;;16.10;53.80;;;;;;5067664;28;19990;-58
2021/01/24 01:38:24;;;;;;;;;;;16.10;53.90;;;;;;5061297;28;19947;-58
2021/01/24 01:40:53;;;;;;;;;;;16.10;53.80;;;;;;5069498;28;19948;-56
2021/01/24 01:43:20;;;;;;;;;;;16.10;53.80;;;;;;5057080;28;19925;-58
2021/01/24 01:45:46;;;;;;;;;;;16.10;53.80;;;;;;5069429;28;19924;-57
2021/01/24 01:48:12;;;;;;;;;;;16.10;53.70;;;;;;5063881;28;19924;-56
2021/01/24 01:50:39;;;;;;;;;;;16.10;53.70;;;;;;5070405;28;19935;-57
2021/01/24 01:53:05;;;;;;;;;;;16.10;53.70;;;;;;5059773;28;19929;-56
2021/01/24 01:55:31;;;;;;;;;;;16.10;53.70;;;;;;5070692;28;19932;-56
2021/01/24 01:57:57;;;;;;;;;;;16.00;53.70;;;;;;5074496;28;19928;-56
2021/01/24 02:00:24;;;;;;;;;;;16.10;53.80;;;;;;5065503;28;19932;-56
2021/01/24 02:03:09;;;;;;;;;;;16.00;53.70;;;;;;5071067;28;19925;-57
2021/01/24 02:05:47;;;;;;;;;;;16.00;53.80;;;;;;5067468;28;19931;-56
2021/01/24 02:08:17;;;;;;;;;;;16.00;53.80;;;;;;5070793;28;19924;-56
2021/01/24 02:11:02;;;;;;;;;;;16.00;53.80;;;;;;5065539;28;20369;-56
2021/01/24 02:13:39;;;;;;;;;;;16.00;53.80;;;;;;5066184;28;20295;-56
2021/01/24 02:16:09;;;;;;;;;;;16.00;54.20;;;;;;5067004;28;19928;-56
2021/01/24 02:18:36;;;;;;;;;;;16.00;53.80;;;;;;5068146;28;19924;-56
2021/01/24 02:21:08;;;;;;;;;;;16.00;53.90;;;;;;5061309;28;19931;-56
2021/01/24 02:23:34;;;;;;;;;;;16.00;53.90;;;;;;5068268;28;19925;-56
2021/01/24 02:26:07;;;;;;;;;;;16.00;53.90;;;;;;5057771;28;19932;-57
2021/01/24 02:28:46;;;;;;;;;;;16.00;53.90;;;;;;5077002;28;20376;-56
2021/01/24 02:31:14;;;;;;;;;;;16.00;53.90;;;;;;5059593;28;19925;-56
2021/01/24 02:33:40;;;;;;;;;;;16.00;53.90;;;;;;5067206;28;19931;-56
2021/01/24 02:36:09;;;;;;;;;;;16.00;53.90;;;;;;5061083;28;19925;-56
2021/01/24 02:38:39;;;;;;;;;;;16.00;53.90;;;;;;5068461;28;19925;-56
2021/01/24 02:41:09;;;;;;;;;;;16.00;53.90;;;;;;5057364;28;19925;-56
2021/01/24 02:43:36;;;;;;;;;;;16.00;54.00;;;;;;5066693;28;19937;-56
2021/01/24 02:46:03;;;;;;;;;;;16.00;53.90;;;;;;5061411;28;19932;-56
2021/01/24 02:48:30;;;;;;;;;;;16.00;54.00;;;;;;5077143;28;20407;-56
2021/01/24 02:50:56;;;;;;;;;;;16.00;54.00;;;;;;5060359;28;19924;-56
2021/01/24 02:53:23;;;;;;;;;;;16.00;54.00;;;;;;5065645;28;19924;-57
2021/01/24 02:55:54;;;;;;;;;;;16.00;54.00;;;;;;5060355;28;20400;-56
2021/01/24 02:58:20;;;;;;;;;;;16.00;54.00;;;;;;5065314;28;19925;-56
2021/01/24 03:00:46;;;;;;;;;;;16.00;54.00;;;;;;5061359;28;19961;-58
2021/01/24 03:03:12;;;;;;;;;;;15.90;54.00;;;;;;5064513;28;19932;-57
2021/01/24 03:05:39;;;;;;;;;;;16.00;54.00;;;;;;5062990;28;19928;-58
2021/01/24 03:08:05;;;;;;;;;;;15.90;54.00;;;;;;5066276;28;20281;-56
2021/01/24 03:10:31;;;;;;;;;;;16.00;54.00;;;;;;5066739;28;19932;-56
2021/01/24 03:13:01;;;;;;;;;;;16.00;54.00;;;;;;5061680;28;19955;-56
2021/01/24 03:15:28;;;;;;;;;;;16.00;54.70;;;;;;5066456;28;20218;-56
2021/01/24 03:17:55;;;;;;;;;;;16.00;54.00;;;;;;5060552;28;19987;-56
2021/01/24 03:20:22;;;;;;;;;;;16.00;54.10;;;;;;5068674;28;19924;-58
2021/01/24 03:22:50;;;;;;;;;;;15.90;54.00;;;;;;5058922;28;19929;-56
2021/01/24 03:25:17;;;;;;;;;;;15.90;54.00;;;;;;5067741;28;19925;-56
2021/01/24 03:27:44;;;;;;;;;;;15.90;54.00;;;;;;5061856;28;19931;-56
2021/01/24 03:30:11;;;;;;;;;;;15.90;54.00;;;;;;5054106;28;19933;-56
2021/01/24 03:32:38;;;;;;;;;;;15.90;54.10;;;;;;5060915;28;20508;-56
2021/01/24 03:35:05;;;;;;;;;;;15.90;54.10;;;;;;5072097;28;19931;-56
2021/01/24 03:37:32;;;;;;;;;;;15.90;54.10;;;;;;5060281;28;19933;-56
2021/01/24 03:39:58;;;;;;;;;;;15.90;54.20;;;;;;5071626;28;19932;-55
2021/01/24 03:42:28;;;;;;;;;;;15.90;54.10;;;;;;5060885;28;20280;-57
2021/01/24 03:44:55;;;;;;;;;;;15.90;54.10;;;;;;5066655;28;19925;-57
2021/01/24 03:47:21;;;;;;;;;;;15.90;54.20;;;;;;5064616;28;19936;-57
2021/01/24 03:49:47;;;;;;;;;;;15.90;54.20;;;;;;5069120;28;19933;-56
2021/01/24 03:52:13;;;;;;;;;;;15.90;54.20;;;;;;5068809;28;20357;-57
2021/01/24 03:54:39;;;;;;;;;;;15.90;54.10;;;;;;5061049;28;19932;-56
2021/01/24 03:57:09;;;;;;;;;;;15.90;54.10;;;;;;5067475;28;19928;-56
2021/01/24 03:59:35;;;;;;;;;;;15.90;54.10;;;;;;5063290;28;20400;-56
2021/01/24 04:02:01;;;;;;;;;;;15.90;54.10;;;;;;5069667;28;19931;-55
2021/01/24 04:04:28;;;;;;;;;;;15.90;54.10;;;;;;5064310;28;19998;-56
2021/01/24 04:06:54;;;;;;;;;;;15.90;54.10;;;;;;5068046;28;19924;-56
2021/01/24 04:09:20;;;;;;;;;;;15.90;54.20;;;;;;5067322;28;19935;-56
2021/01/24 04:11:46;;;;;;;;;;;15.90;54.10;;;;;;5071318;28;19925;-56
2021/01/24 04:14:12;;;;;;;;;;;15.90;54.10;;;;;;5062930;28;19925;-56
2021/01/24 04:16:39;;;;;;;;;;;15.90;54.20;;;;;;5067064;28;19932;-56
2021/01/24 04:19:05;;;;;;;;;;;15.90;54.10;;;;;;5062631;28;20021;-56
2021/01/24 04:21:31;;;;;;;;;;;15.80;54.10;;;;;;5066935;28;19931;-56
2021/01/24 04:23:57;;;;;;;;;;;15.90;54.10;;;;;;5067161;28;19932;-56
2021/01/24 04:26:23;;;;;;;;;;;15.80;54.10;;;;;;5069787;28;19924;-58
2021/01/24 04:28:50;;;;;;;;;;;15.90;54.10;;;;;;5061040;28;19947;-57
2021/01/24 04:31:16;;;;;;;;;;;15.90;54.10;;;;;;5065620;28;19933;-57
2021/01/24 04:33:42;;;;;;;;;;;15.90;54.10;;;;;;5074592;28;19924;-57
2021/01/24 04:36:08;;;;;;;;;;;15.80;54.10;;;;;;5061638;28;19929;-57
2021/01/24 04:38:35;;;;;;;;;;;15.80;54.00;;;;;;5071139;28;19925;-57
2021/01/24 04:41:01;;;;;;;;;;;15.80;54.00;;;;;;5061704;28;19924;-57
2021/01/24 04:43:27;;;;;;;;;;;15.80;54.10;;;;;;5074210;28;20366;-57
2021/01/24 04:45:55;;;;;;;;;;;15.80;54.00;;;;;;5062664;28;19932;-57
2021/01/24 04:48:22;;;;;;;;;;;15.80;54.00;;;;;;5068586;28;19924;-56
2021/01/24 04:50:49;;;;;;;;;;;15.80;54.00;;;;;;5062424;28;19951;-57
2021/01/24 04:53:16;;;;;;;;;;;15.80;54.00;;;;;;5067501;28;19950;-55
2021/01/24 04:55:43;;;;;;;;;;;15.80;54.00;;;;;;5062692;28;19932;-55
2021/01/24 04:58:09;;;;;;;;;;;15.80;54.00;;;;;;5066569;28;19928;-56
2021/01/24 05:00:35;;;;;;;;;;;15.80;54.00;;;;;;5058339;28;19958;-56
2021/01/24 05:03:02;;;;;;;;;;;15.80;54.00;;;;;;5071132;28;20022;-56
2021/01/24 05:05:29;;;;;;;;;;;15.80;54.00;;;;;;5060480;28;19936;-56
2021/01/24 05:07:56;;;;;;;;;;;15.80;53.90;;;;;;5066646;28;19931;-56
2021/01/24 05:10:31;;;;;;;;;;;15.80;53.90;;;;;;5062348;28;19924;-55
2021/01/24 05:12:58;;;;;;;;;;;15.80;53.90;;;;;;5074793;28;19925;-58
2021/01/24 05:15:25;;;;;;;;;;;15.80;53.90;;;;;;5081526;28;19935;-57
2021/01/24 05:17:52;;;;;;;;;;;15.80;53.90;;;;;;5061108;28;19924;-57
2021/01/24 05:20:22;;;;;;;;;;;15.80;53.90;;;;;;5070128;28;19932;-57
2021/01/24 05:22:49;;;;;;;;;;;15.80;53.90;;;;;;5061596;28;19935;-57
2021/01/24 05:25:28;;;;;;;;;;;15.80;53.80;;;;;;5069532;28;20412;-57
2021/01/24 05:27:55;;;;;;;;;;;15.80;53.80;;;;;;5061837;28;19929;-57
2021/01/24 05:30:22;;;;;;;;;;;15.80;53.90;;;;;;5067343;28;19924;-57
2021/01/24 05:32:51;;;;;;;;;;;15.80;53.80;;;;;;5062035;28;19947;-56
2021/01/24 05:35:18;;;;;;;;;;;15.80;53.80;;;;;;5067277;28;19932;-56
2021/01/24 05:37:45;;;;;;;;;;;15.80;53.80;;;;;;5062804;28;19924;-57
2021/01/24 05:40:11;;;;;;;;;;;15.80;53.80;;;;;;5068847;28;19924;-56
2021/01/24 05:42:38;;;;;;;;;;;15.80;53.80;;;;;;5059392;28;20404;-56
2021/01/24 05:45:11;;;;;;;;;;;15.80;53.80;;;;;;5066222;28;19924;-56
2021/01/24 05:47:38;;;;;;;;;;;15.80;53.70;;;;;;5058820;28;19925;-55
2021/01/24 05:50:11;;;;;;;;;;;15.80;53.70;;;;;;5063293;28;19938;-56
2021/01/24 05:52:45;;;;;;;;;;;15.80;53.70;;;;;;5057419;28;19928;-56
2021/01/24 05:55:27;;;;;;;;;;;15.80;53.70;;;;;;5067567;28;20574;-56
2021/01/24 05:57:54;;;;;;;;;;;15.70;53.60;;;;;;5063234;28;19924;-55
2021/01/24 06:00:21;;;;;;;;;;;15.80;53.70;;;;;;5069170;28;19940;-56
2021/01/24 06:02:47;;;;;;;;;;;15.70;53.60;;;;;;5060579;28;19939;-56
2021/01/24 06:05:13;;;;;;;;;;;15.80;53.60;;;;;;5066640;28;20332;-55
2021/01/24 06:07:40;;;;;;;;;;;15.80;53.50;;;;;;5060208;28;19935;-58
2021/01/24 06:10:06;;;;;;;;;;;15.80;53.40;;;;;;5066328;28;19925;-55
2021/01/24 06:12:34;;;;;;;;;;;15.80;53.40;;;;;;5077632;28;20396;-56
2021/01/24 06:15:04;;;;;;;;;;;15.70;53.30;;;;;;5060649;28;20365;-56
2021/01/24 06:17:36;;;;;;;;;;;15.80;53.30;;;;;;5074167;28;19925;-56
2021/01/24 06:20:04;;;;;;;;;;;15.80;53.30;;;;;;5060790;28;19925;-55
2021/01/24 06:22:42;;;;;;;;;;;15.70;53.30;;;;;;5066917;28;19925;-55
2021/01/24 06:25:21;;;;;;;;;;;15.70;53.20;;;;;;5056961;28;19928;-58
2021/01/24 06:27:51;;;;;;;;;;;15.70;53.20;;;;;;5066151;28;19925;-57
2021/01/24 06:30:18;;;;;;;;;;;15.70;53.10;;;;;;5058649;28;19925;-57
2021/01/24 06:32:44;;;;;;;;;;;15.70;53.20;;;;;;5074070;28;20376;-56
2021/01/24 06:35:21;;;;;;;;;;;15.70;53.20;;;;;;5059946;28;19933;-56
2021/01/24 06:37:48;;;;;;;;;;;15.70;53.20;;;;;;5063010;28;19925;-57
2021/01/24 06:40:25;;;;;;;;;;;15.70;53.20;;;;;;5057977;28;19959;-56
2021/01/24 06:42:56;;;;;;;;;;;15.70;53.20;;;;;;5069261;28;20396;-56
2021/01/24 06:45:25;;;;;;;;;;;15.70;53.30;;;;;;5059096;28;19933;-56
2021/01/24 06:47:55;;;;;;;;;;;15.70;53.30;;;;;;5068383;28;19925;-56
2021/01/24 06:50:40;;;;;;;;;;;15.70;53.40;;;;;;5060585;28;19933;-56
2021/01/24 06:53:07;;;;;;;;;;;15.70;53.40;;;;;;5064832;28;19935;-57
2021/01/24 06:55:37;;;;;;;;;;;15.70;53.40;;;;;;5059291;28;19924;-56
2021/01/24 06:58:22;;;;;;;;;;;15.70;53.40;;;;;;5066358;28;19924;-56
2021/01/24 07:00:48;;;;;;;;;;;15.70;53.40;;;;;;5057527;28;20031;-55
2021/01/24 07:03:21;;;;;;;;;;;15.70;53.50;;;;;;5067872;28;19959;-56
2021/01/24 07:05:53;;;;;;;;;;;15.70;53.40;;;;;;5062851;28;20357;-56
2021/01/24 07:08:31;;;;;;;;;;;15.70;53.40;;;;;;5070616;28;19940;-56
2021/01/24 07:10:58;;;;;;;;;;;15.70;53.40;;;;;;5063335;28;19924;-56
2021/01/24 07:13:24;;;;;;;;;;;15.70;53.40;;;;;;5067504;28;19924;-57
2021/01/24 07:16:02;;;;;;;;;;;15.70;53.40;;;;;;5072954;28;20728;-55
2021/01/24 07:18:44;;;;;;;;;;;15.70;53.40;;;;;;5081002;28;20269;-54
2021/01/24 07:21:11;;;;;;;;;;;15.70;53.30;;;;;;5071907;28;19935;-56
2021/01/24 07:23:41;;;;;;;;;;;15.70;53.30;;;;;;5069177;28;19930;-56
2021/01/24 07:26:10;;;;;;;;;;;15.70;53.30;;;;;;5076841;28;19924;-57
2021/01/24 07:28:37;;;;;;;;;;;15.70;53.30;;;;;;5067611;28;19954;-58
2021/01/24 07:31:05;;;;;;;;;;;15.70;53.30;;;;;;5071488;28;19980;-56
2021/01/24 07:33:31;;;;;;;;;;;15.70;53.30;;;;;;5069835;28;20543;-56
2021/01/24 07:36:04;;;;;;;;;;;15.70;53.30;;;;;;5075641;28;19936;-53
2021/01/24 07:38:30;;;;;;;;;;;15.70;53.30;;;;;;5066420;28;19925;-55
2021/01/24 07:40:58;;;;;;;;;;;15.70;53.30;;;;;;5067338;28;19932;-55
2021/01/24 07:43:25;;;;;;;;;;;15.70;53.30;;;;;;5065196;28;19925;-55
2021/01/24 07:45:51;;;;;;;;;;;15.70;53.30;;;;;;5073925;28;19925;-54
2021/01/24 07:48:17;;;;;;;;;;;15.60;53.20;;;;;;5068059;28;20261;-55
2021/01/24 07:50:43;;;;;;;;;;;15.70;53.30;;;;;;5077014;28;19924;-55
2021/01/24 07:53:10;;;;;;;;;;;15.70;53.30;;;;;;5066680;28;19932;-55
2021/01/24 07:55:37;;;;;;;;;;;15.70;53.30;;;;;;5077311;28;19925;-55
2021/01/24 07:58:04;;;;;;;;;;;15.70;53.30;;;;;;5074153;28;19933;-55
2021/01/24 08:00:31;;;;;;;;;;;15.70;53.30;;;;;;5071458;28;19924;-55
2021/01/24 08:02:58;;;;;;;;;;;15.70;53.40;;;;;;5067883;28;19924;-55
2021/01/24 08:05:39;;;;;;;;;;;15.70;53.40;;;;;;5071870;28;19939;-55
2021/01/24 08:08:06;;;;;;;;;;;15.70;53.40;;;;;;5070049;28;19932;-54
2021/01/24 08:10:32;;;;;;;;;;;15.70;53.60;;;;;;5069261;28;20284;-54
2021/01/24 08:12:58;;;;;;;;;;;15.70;54.50;;;;;;5070334;28;20396;-54
2021/01/24 08:15:25;;;;;;;;;;;15.70;55.20;;;;;;5068967;28;19933;-55
2021/01/24 08:17:51;;;;;;;;;;;15.60;54.60;;;;;;5066426;28;20489;-54
2021/01/24 08:20:19;;;;;;;;;;;15.70;54.40;;;;;;5072616;28;19924;-58
2021/01/24 08:22:45;;;;;;;;;;;15.70;54.40;;;;;;5069804;28;19925;-59
2021/01/24 08:25:12;;;;;;;;;;;15.70;54.50;;;;;;5064063;28;19924;-59
2021/01/24 08:27:38;;;;;;;;;;;15.70;54.20;;;;;;5069245;28;19924;-59
2021/01/24 08:30:05;;;;;;;;;;;15.70;54.20;;;;;;5061097;28;19932;-59
2021/01/24 08:32:32;;;;;;;;;;;15.70;54.10;;;;;;5067009;28;19932;-59
2021/01/24 08:34:58;;;;;;;;;;;15.70;54.00;;;;;;5060908;28;19925;-63
2021/01/24 08:37:25;;;;;;;;;;;15.70;54.10;;;;;;5048848;28;19952;-59
2021/01/24 08:39:51;;;;;;;;;;;15.70;54.20;;;;;;5057755;28;20388;-59
2021/01/24 08:42:17;;;;;;;;;;;15.70;54.10;;;;;;5073452;28;20405;-59
2021/01/24 08:45:05;;;;;;;;;;;15.60;54.00;;;;;;5062812;28;19932;-59
2021/01/24 08:47:32;;;;;;;;;;;15.60;54.00;;;;;;5033143;28;19943;-59
2021/01/24 08:50:09;;;;;;;;;;;15.70;54.00;;;;;;5056848;28;20098;-59
2021/01/24 08:52:35;;;;;;;;;;;15.70;54.00;;;;;;5060507;28;19929;-59
2021/01/24 08:55:05;;;;;;;;;;;15.70;53.90;;;;;;5054022;28;19929;-59
2021/01/24 08:57:33;;;;;;;;;;;15.60;53.90;;;;;;5057935;28;19939;-59
2021/01/24 09:00:08;;;;;;;;;;;15.70;53.90;;;;;;5054032;28;19928;-59
2021/01/24 09:02:35;;;;;;;;;;;15.70;54.00;;;;;;5060197;28;19935;-60
2021/01/24 09:05:04;;;;;;;;;;;15.70;54.60;;;;;;5055687;28;19928;-59
2021/01/24 09:07:38;;;;;;;;;;;15.70;56.90;;;;;;5047208;28;23694;-59
2021/01/24 09:10:30;;;;;;;;;;;15.70;56.20;;;;;;5060322;28;19951;-56
2021/01/24 09:13:00;;;;;;;;;;;15.70;55.90;;;;;;5064714;28;19933;-56
2021/01/24 09:15:28;;;;;;;;;;;15.70;55.60;;;;;;5056443;28;19947;-55
2021/01/24 09:17:55;;;;;;;;;;;15.70;55.30;;;;;;5068325;28;19936;-56
2021/01/24 09:20:22;;;;;;;;;;;15.70;55.10;;;;;;5060583;28;19940;-60
2021/01/24 09:22:50;;;;;;;;;;;15.70;54.90;;;;;;5066050;28;20404;-59
2021/01/24 09:25:26;;;;;;;;;;;15.70;54.70;;;;;;5060509;28;19932;-55
2021/01/24 09:27:52;;;;;;;;;;;15.70;54.70;;;;;;5068951;28;19947;-55
2021/01/24 09:30:18;;;;;;;;;;;15.70;54.60;;;;;;5069811;28;19925;-55
2021/01/24 09:32:45;;;;;;;;;;;15.70;54.70;;;;;;5064198;28;19928;-55
2021/01/24 09:35:16;;;;;;;;;;;15.70;54.50;;;;;;5070023;28;19933;-54
2021/01/24 09:37:42;;;;;;;;;;;15.70;54.50;;;;;;5064292;28;19933;-55
2021/01/24 09:40:09;;;;;;;;;;;15.70;54.40;;;;;;5066548;28;19928;-54
2021/01/24 09:42:35;;;;;;;;;;;15.70;54.30;;;;;;5062216;28;19956;-54
2021/01/24 09:45:06;;;;;;;;;;;15.70;54.20;;;;;;5065661;28;19928;-55
2021/01/24 09:47:33;;;;;;;;;;;15.70;54.20;;;;;;5060923;28;19931;-55
2021/01/24 09:49:59;;;;;;;;;;;15.70;54.20;;;;;;5065862;28;20006;-54
2021/01/24 09:52:26;;;;;;;;;;;15.70;54.10;;;;;;5063873;28;19931;-55
2021/01/24 09:54:57;;;;;;;;;;;15.70;54.00;;;;;;5072416;28;19928;-54
2021/01/24 09:57:23;;;;;;;;;;;15.70;54.00;;;;;;5054223;28;19928;-55
2021/01/24 09:59:50;;;;;;;;;;;15.70;54.00;;;;;;5060522;28;19932;-56
2021/01/24 10:02:16;;;;;;;;;;;15.70;54.00;;;;;;5055918;28;19988;-55
2021/01/24 10:04:42;;;;;;;;;;;15.70;54.00;;;;;;5064809;28;20387;-55
2021/01/24 10:07:08;;;;;;;;;;;15.70;53.90;;;;;;5062253;28;19940;-54
2021/01/24 10:09:35;;;;;;;;;;;15.70;53.90;;;;;;5067561;28;19924;-54
2021/01/24 10:12:01;;;;;;;;;;;15.70;53.90;;;;;;5068569;28;19929;-54
2021/01/24 10:14:27;;;;;;;;;;;15.70;53.80;;;;;;5065454;28;19924;-54
2021/01/24 10:17:03;;;;;;;;;;;15.70;53.80;;;;;;5063691;28;20312;-55
2021/01/24 10:19:30;;;;;;;;;;;15.70;53.80;;;;;;5063407;28;19932;-54
2021/01/24 10:21:56;;;;;;;;;;;15.70;53.70;;;;;;5068291;28;19925;-54
2021/01/24 10:24:22;;;;;;;;;;;15.70;53.60;;;;;;5047357;28;20381;-55
2021/01/24 10:26:53;;;;;;;;;;;15.70;53.70;;;;;;5066256;28;19929;-54
2021/01/24 10:29:20;;;;;;;;;;;15.70;53.60;;;;;;5082872;28;19929;-54
2021/01/24 10:31:46;;;;;;;;;;;15.70;53.60;;;;;;5066224;28;20019;-55
2021/01/24 10:34:12;;;;;;;;;;;15.70;53.60;;;;;;5065299;28;19995;-55
2021/01/24 10:36:58;;;;;;;;;;;15.70;53.60;;;;;;5068572;28;19925;-54
2021/01/24 10:39:25;;;;;;;;;;;15.80;53.60;;;;;;5065898;28;19952;-52
2021/01/24 10:41:51;;;;;;;;;;;15.80;53.60;;;;;;5065870;28;20287;-54
2021/01/24 10:44:17;;;;;;;;;;;15.80;53.60;;;;;;5067280;28;19932;-54
2021/01/24 10:46:43;;;;;;;;;;;15.70;53.60;;;;;;5070061;28;19925;-53
2021/01/24 10:49:10;;;;;;;;;;;15.80;53.50;;;;;;5062613;28;20690;-53
2021/01/24 10:51:37;;;;;;;;;;;15.70;53.50;;;;;;5066664;28;19928;-53
2021/01/24 10:54:03;;;;;;;;;;;15.80;53.50;;;;;;5063863;28;19924;-54
2021/01/24 10:56:29;;;;;;;;;;;15.70;53.50;;;;;;5066255;28;20138;-59
2021/01/24 10:58:55;;;;;;;;;;;15.80;53.50;;;;;;5056917;28;19925;-58
2021/01/24 11:01:22;;;;;;;;;;;15.80;53.40;;;;;;5064305;28;19931;-57
2021/01/24 11:03:48;;;;;;;;;;;15.80;53.60;;;;;;5065245;28;20010;-58
2021/01/24 11:06:14;;;;;;;;;;;15.80;53.40;;;;;;5056295;28;19925;-57
2021/01/24 11:08:40;;;;;;;;;;;15.80;53.50;;;;;;5064066;28;19933;-57
2021/01/24 11:11:06;;;;;;;;;;;15.80;53.40;;;;;;5057023;28;20304;-57
2021/01/24 11:13:32;;;;;;;;;;;15.80;53.50;;;;;;5064404;28;20407;-58
2021/01/24 11:15:59;;;;;;;;;;;15.80;53.40;;;;;;5055948;28;19925;-59
2021/01/24 11:18:25;;;;;;;;;;;15.80;53.40;;;;;;5067479;28;19936;-58
2021/01/24 11:20:51;;;;;;;;;;;15.80;53.40;;;;;;5054173;28;19924;-58
2021/01/24 11:23:17;;;;;;;;;;;15.80;54.10;;;;;;5064373;28;19932;-57
2021/01/24 11:25:43;;;;;;;;;;;15.90;55.80;;;;;;5061208;28;19928;-57
2021/01/24 11:28:11;;;;;;;;;;;15.90;55.60;;;;;;5064696;28;20791;-60
2021/01/24 11:30:37;;;;;;;;;;;15.90;56.00;;;;;;5060216;28;19924;-58
2021/01/24 11:33:04;;;;;;;;;;;16.00;56.00;;;;;;5064819;28;19925;-56
2021/01/24 11:35:30;;;;;;;;;;;16.00;56.80;;;;;;5061301;28;19932;-57
2021/01/24 11:37:56;;;;;;;;;;;16.00;56.50;;;;;;5063693;28;19925;-58
2021/01/24 11:40:22;;;;;;;;;;;16.00;56.40;;;;;;5067309;28;19931;-56
2021/01/24 11:42:49;;;;;;;;;;;16.00;56.60;;;;;;5055625;28;20304;-55
2021/01/24 11:45:15;;;;;;;;;;;16.00;56.60;;;;;;5067124;28;19931;-56
2021/01/24 11:47:41;;;;;;;;;;;16.00;56.70;;;;;;5058293;28;19943;-54
2021/01/24 11:50:08;;;;;;;;;;;16.00;56.90;;;;;;5070021;28;19946;-53
2021/01/24 11:52:34;;;;;;;;;;;16.00;57.10;;;;;;5064274;28;19932;-53
2021/01/24 11:55:00;;;;;;;;;;;16.00;56.70;;;;;;5071609;28;19943;-56
2021/01/24 11:57:27;;;;;;;;;;;16.10;57.10;;;;;;5060185;28;19928;-53
2021/01/24 11:59:53;;;;;;;;;;;16.10;57.00;;;;;;5070658;28;19928;-54
2021/01/24 12:02:21;;;;;;;;;;;16.10;57.20;;;;;;5059567;28;20364;-56
2021/01/24 12:04:48;;;;;;;;;;;16.20;56.90;;;;;;5055038;28;19924;-56
2021/01/24 12:07:14;;;;;;;;;;;16.20;57.20;;;;;;5059706;28;19924;-56
2021/01/24 12:09:40;;;;;;;;;;;16.30;57.90;;;;;;5069447;28;19933;-56
2021/01/24 12:12:07;;;;;;;;;;;16.30;59.00;;;;;;5063220;28;20442;-54
2021/01/24 12:14:33;;;;;;;;;;;16.30;58.60;;;;;;5069304;28;19931;-53
2021/01/24 12:16:59;;;;;;;;;;;16.40;58.30;;;;;;5064293;28;19931;-54
2021/01/24 12:19:26;;;;;;;;;;;16.50;59.60;;;;;;5047912;28;19924;-58
2021/01/24 12:21:52;;;;;;;;;;;16.60;59.90;;;;;;5069283;28;19924;-58
2021/01/24 12:24:18;;;;;;;;;;;16.70;58.60;;;;;;5063909;28;19924;-58
2021/01/24 12:26:45;;;;;;;;;;;16.70;59.00;;;;;;5068274;28;20521;-58
2021/01/24 12:29:11;;;;;;;;;;;16.70;58.80;;;;;;5062667;28;19924;-58
2021/01/24 12:31:37;;;;;;;;;;;16.70;58.50;;;;;;5068640;28;19943;-57
2021/01/24 12:34:04;;;;;;;;;;;16.70;58.40;;;;;;5060722;28;20309;-57
2021/01/24 12:36:30;;;;;;;;;;;16.80;58.80;;;;;;5068779;28;20046;-58
2021/01/24 12:38:56;;;;;;;;;;;16.80;58.30;;;;;;5061349;28;19925;-57
2021/01/24 12:41:22;;;;;;;;;;;16.90;58.30;;;;;;5065927;28;19928;-58
2021/01/24 12:43:48;;;;;;;;;;;16.90;58.00;;;;;;5055910;28;19932;-58
2021/01/24 12:46:14;;;;;;;;;;;17.00;57.70;;;;;;5068558;28;19946;-57
2021/01/24 12:48:41;;;;;;;;;;;17.10;57.60;;;;;;5061901;28;19928;-57
2021/01/24 12:51:07;;;;;;;;;;;17.10;57.90;;;;;;5065577;28;19924;-57
2021/01/24 12:53:44;;;;;;;;;;;17.20;57.60;;;;;;5060832;28;19950;-56
2021/01/24 12:56:10;;;;;;;;;;;17.30;57.80;;;;;;5069913;28;19928;-56
2021/01/24 12:58:36;;;;;;;;;;;17.30;57.70;;;;;;5061669;28;20388;-58
2021/01/24 13:01:02;;;;;;;;;;;17.30;57.40;;;;;;5066855;28;19932;-56
2021/01/24 13:03:28;;;;;;;;;;;17.40;57.70;;;;;;5071134;28;19924;-55
2021/01/24 13:05:55;;;;;;;;;;;17.40;57.60;;;;;;5060979;28;19924;-55
2021/01/24 13:08:21;;;;;;;;;;;17.50;57.30;;;;;;5066910;28;19932;-55
2021/01/24 13:10:48;;;;;;;;;;;17.60;56.90;;;;;;5062305;28;19930;-56
2021/01/24 13:13:14;;;;;;;;;;;17.60;58.20;;;;;;5070186;28;19924;-55
2021/01/24 13:15:40;;;;;;;;;;;17.60;58.50;;;;;;5067056;28;19937;-54
2021/01/24 13:18:09;;;;;;;;;;;17.50;58.60;;;;;;5075727;28;19931;-55
2021/01/24 13:20:35;;;;;;;;;;;17.60;59.60;;;;;;5068961;28;19925;-53
2021/01/24 13:23:01;;;;;;;;;;;17.60;59.90;;;;;;5077825;28;20359;-55
2021/01/24 13:25:27;;;;;;;;;;;17.60;60.50;;;;;;5068842;28;19928;-53
2021/01/24 13:27:54;;;;;;;;;;;17.60;61.60;;;;;;5071674;28;19936;-56
2021/01/24 13:30:20;;;;;;;;;;;17.70;61.10;;;;;;5072451;28;19928;-54
2021/01/24 13:32:46;;;;;;;;;;;17.60;61.20;;;;;;5068828;28;19931;-56
2021/01/24 13:35:23;;;;;;;;;;;17.70;60.80;;;;;;5068362;28;19932;-55
2021/01/24 13:37:49;;;;;;;;;;;17.70;60.70;;;;;;5077125;28;20389;-55
2021/01/24 13:40:15;;;;;;;;;;;17.70;60.60;;;;;;5066775;28;19924;-55
2021/01/24 13:42:42;;;;;;;;;;;17.70;60.50;;;;;;5071592;28;19962;-55
2021/01/24 13:45:18;;;;;;;;;;;17.70;60.20;;;;;;5069055;28;19932;-56
2021/01/24 13:47:45;;;;;;;;;;;17.70;60.20;;;;;;5064069;28;19970;-56
2021/01/24 13:50:11;;;;;;;;;;;17.80;60.30;;;;;;5072469;28;20467;-55
2021/01/24 13:52:38;;;;;;;;;;;17.80;60.00;;;;;;5060275;28;19924;-56
2021/01/24 13:55:05;;;;;;;;;;;17.70;60.00;;;;;;5070196;28;19939;-55
2021/01/24 13:57:31;;;;;;;;;;;17.80;59.90;;;;;;5056941;28;19936;-56
2021/01/24 13:59:58;;;;;;;;;;;17.80;59.70;;;;;;5061816;28;19935;-55
2021/01/24 14:02:24;;;;;;;;;;;17.80;59.60;;;;;;5055774;28;19932;-55
2021/01/24 14:04:50;;;;;;;;;;;17.70;59.50;;;;;;5069047;28;19932;-55
2021/01/24 14:07:16;;;;;;;;;;;17.70;59.30;;;;;;5055522;28;19982;-56
2021/01/24 14:09:43;;;;;;;;;;;17.70;59.30;;;;;;5056045;28;19928;-55
2021/01/24 14:12:09;;;;;;;;;;;17.70;59.10;;;;;;5054551;28;19928;-56
2021/01/24 14:14:35;;;;;;;;;;;17.70;59.10;;;;;;5054627;28;20385;-56
2021/01/24 14:17:02;;;;;;;;;;;17.70;59.10;;;;;;5053142;28;19933;-56
2021/01/24 14:19:28;;;;;;;;;;;17.70;58.90;;;;;;5059408;28;20412;-56